sensor_id;sensor_type;location;lat;lon;timestamp;P1;durP1;ratioP1;P2;durP2;ratioP2
37303;SDS011;23188;51.188;16.374;2024-03-02T00:01:29;105.20;;;73.60;;
37303;SDS011;23188;51.188;16.374;2024-03-02T00:05:31;104.80;;;73.90;;
37303;SDS011;23188;51.188;16.374;2024-03-02T00:09:32;107.80;;;75.50;;
37303;SDS011;23188;51.188;16.374;2024-03-02T00:13:35;99.80;;;67.80;;
37303;SDS011;23188;51.188;16.374;2024-03-02T00:17:37;106.20;;;69.90;;
37303;SDS011;23188;51.188;16.374;2024-03-02T00:21:39;104.60;;;74.00;;
37303;SDS011;23188;51.188;16.374;2024-03-02T00:25:44;110.60;;;76.60;;
37303;SDS011;23188;51.188;16.374;2024-03-02T00:29:49;106.10;;;71.30;;
37303;SDS011;23188;51.188;16.374;2024-03-02T00:33:52;98.40;;;69.90;;
37303;SDS011;23188;51.188;16.374;2024-03-02T00:37:54;98.80;;;68.70;;
37303;SDS011;23188;51.188;16.374;2024-03-02T00:41:56;102.70;;;74.10;;
37303;SDS011;23188;51.188;16.374;2024-03-02T00:45:58;100.10;;;67.30;;
37303;SDS011;23188;51.188;16.374;2024-03-02T00:49:59;103.10;;;72.10;;
37303;SDS011;23188;51.188;16.374;2024-03-02T00:54:07;91.60;;;68.80;;
37303;SDS011;23188;51.188;16.374;2024-03-02T00:58:10;111.50;;;73.20;;
37303;SDS011;23188;51.188;16.374;2024-03-02T01:02:12;107.80;;;72.60;;
37303;SDS011;23188;51.188;16.374;2024-03-02T01:06:14;109.20;;;76.90;;
37303;SDS011;23188;51.188;16.374;2024-03-02T01:10:17;108.40;;;73.50;;
37303;SDS011;23188;51.188;16.374;2024-03-02T01:14:18;105.50;;;76.00;;
37303;SDS011;23188;51.188;16.374;2024-03-02T01:18:20;94.80;;;72.80;;
37303;SDS011;23188;51.188;16.374;2024-03-02T01:22:23;111.50;;;78.00;;
37303;SDS011;23188;51.188;16.374;2024-03-02T01:26:26;103.90;;;77.30;;
37303;SDS011;23188;51.188;16.374;2024-03-02T01:30:28;101.10;;;76.30;;
37303;SDS011;23188;51.188;16.374;2024-03-02T01:34:30;117.40;;;83.10;;
37303;SDS011;23188;51.188;16.374;2024-03-02T01:38:32;112.30;;;80.60;;
37303;SDS011;23188;51.188;16.374;2024-03-02T01:42:36;121.30;;;82.10;;
37303;SDS011;23188;51.188;16.374;2024-03-02T01:46:38;114.50;;;80.80;;
37303;SDS011;23188;51.188;16.374;2024-03-02T01:50:40;108.80;;;79.90;;
37303;SDS011;23188;51.188;16.374;2024-03-02T01:54:42;119.30;;;81.30;;
37303;SDS011;23188;51.188;16.374;2024-03-02T01:58:44;118.50;;;83.70;;
37303;SDS011;23188;51.188;16.374;2024-03-02T02:02:46;104.00;;;71.50;;
37303;SDS011;23188;51.188;16.374;2024-03-02T02:06:49;106.70;;;78.50;;
37303;SDS011;23188;51.188;16.374;2024-03-02T02:10:51;105.00;;;73.80;;
37303;SDS011;23188;51.188;16.374;2024-03-02T02:14:53;114.10;;;82.00;;
37303;SDS011;23188;51.188;16.374;2024-03-02T02:18:55;121.40;;;76.70;;
37303;SDS011;23188;51.188;16.374;2024-03-02T02:23:06;112.20;;;79.20;;
37303;SDS011;23188;51.188;16.374;2024-03-02T02:27:11;116.80;;;78.70;;
37303;SDS011;23188;51.188;16.374;2024-03-02T02:31:16;109.60;;;78.40;;
37303;SDS011;23188;51.188;16.374;2024-03-02T02:35:17;119.90;;;84.10;;
37303;SDS011;23188;51.188;16.374;2024-03-02T02:39:20;117.30;;;81.10;;
37303;SDS011;23188;51.188;16.374;2024-03-02T02:43:23;116.80;;;78.70;;
37303;SDS011;23188;51.188;16.374;2024-03-02T02:47:25;110.20;;;77.20;;
37303;SDS011;23188;51.188;16.374;2024-03-02T02:51:27;110.20;;;76.20;;
37303;SDS011;23188;51.188;16.374;2024-03-02T02:55:29;102.90;;;72.70;;
37303;SDS011;23188;51.188;16.374;2024-03-02T02:59:31;106.00;;;72.90;;
37303;SDS011;23188;51.188;16.374;2024-03-02T03:03:33;108.80;;;75.10;;
37303;SDS011;23188;51.188;16.374;2024-03-02T03:07:35;109.70;;;74.70;;
37303;SDS011;23188;51.188;16.374;2024-03-02T03:11:38;102.80;;;73.50;;
37303;SDS011;23188;51.188;16.374;2024-03-02T03:15:40;102.70;;;73.10;;
37303;SDS011;23188;51.188;16.374;2024-03-02T03:19:41;106.00;;;74.20;;
37303;SDS011;23188;51.188;16.374;2024-03-02T03:23:43;101.10;;;72.50;;
37303;SDS011;23188;51.188;16.374;2024-03-02T03:27:45;97.60;;;71.80;;
37303;SDS011;23188;51.188;16.374;2024-03-02T03:31:47;105.80;;;77.30;;
37303;SDS011;23188;51.188;16.374;2024-03-02T03:35:49;106.10;;;74.10;;
37303;SDS011;23188;51.188;16.374;2024-03-02T03:39:50;116.90;;;79.20;;
37303;SDS011;23188;51.188;16.374;2024-03-02T03:43:52;121.70;;;80.00;;
37303;SDS011;23188;51.188;16.374;2024-03-02T03:47:54;111.90;;;78.60;;
37303;SDS011;23188;51.188;16.374;2024-03-02T03:51:56;121.50;;;79.30;;
37303;SDS011;23188;51.188;16.374;2024-03-02T03:55:58;90.20;;;65.80;;
37303;SDS011;23188;51.188;16.374;2024-03-02T04:00:00;103.40;;;70.20;;
37303;SDS011;23188;51.188;16.374;2024-03-02T04:04:02;110.90;;;76.20;;
37303;SDS011;23188;51.188;16.374;2024-03-02T04:08:05;115.60;;;76.70;;
37303;SDS011;23188;51.188;16.374;2024-03-02T04:12:06;110.70;;;73.60;;
37303;SDS011;23188;51.188;16.374;2024-03-02T04:16:08;103.40;;;71.90;;
37303;SDS011;23188;51.188;16.374;2024-03-02T04:20:10;109.70;;;75.20;;
37303;SDS011;23188;51.188;16.374;2024-03-02T04:24:13;107.40;;;73.30;;
37303;SDS011;23188;51.188;16.374;2024-03-02T04:28:15;106.70;;;71.50;;
37303;SDS011;23188;51.188;16.374;2024-03-02T04:32:17;105.00;;;72.20;;
37303;SDS011;23188;51.188;16.374;2024-03-02T04:36:21;110.30;;;76.90;;
37303;SDS011;23188;51.188;16.374;2024-03-02T04:40:23;107.80;;;75.60;;
37303;SDS011;23188;51.188;16.374;2024-03-02T04:44:24;123.80;;;78.10;;
37303;SDS011;23188;51.188;16.374;2024-03-02T04:48:26;119.40;;;78.00;;
37303;SDS011;23188;51.188;16.374;2024-03-02T04:52:28;113.60;;;75.00;;
37303;SDS011;23188;51.188;16.374;2024-03-02T04:56:30;103.60;;;75.50;;
37303;SDS011;23188;51.188;16.374;2024-03-02T05:00:37;114.80;;;78.10;;
37303;SDS011;23188;51.188;16.374;2024-03-02T05:04:39;110.50;;;74.50;;
37303;SDS011;23188;51.188;16.374;2024-03-02T05:08:41;115.50;;;77.50;;
37303;SDS011;23188;51.188;16.374;2024-03-02T05:12:43;106.50;;;70.70;;
37303;SDS011;23188;51.188;16.374;2024-03-02T05:16:45;108.20;;;74.60;;
37303;SDS011;23188;51.188;16.374;2024-03-02T05:20:47;109.70;;;68.00;;
37303;SDS011;23188;51.188;16.374;2024-03-02T05:24:49;100.70;;;69.60;;
37303;SDS011;23188;51.188;16.374;2024-03-02T05:28:51;111.10;;;77.40;;
37303;SDS011;23188;51.188;16.374;2024-03-02T05:32:53;106.20;;;72.80;;
37303;SDS011;23188;51.188;16.374;2024-03-02T05:36:54;111.40;;;71.70;;
37303;SDS011;23188;51.188;16.374;2024-03-02T05:40:57;106.70;;;76.70;;
37303;SDS011;23188;51.188;16.374;2024-03-02T05:44:58;99.20;;;73.70;;
37303;SDS011;23188;51.188;16.374;2024-03-02T05:49:00;119.50;;;77.10;;
37303;SDS011;23188;51.188;16.374;2024-03-02T05:53:02;106.30;;;70.30;;
37303;SDS011;23188;51.188;16.374;2024-03-02T05:57:04;94.70;;;67.30;;
37303;SDS011;23188;51.188;16.374;2024-03-02T06:01:26;105.10;;;67.80;;
37303;SDS011;23188;51.188;16.374;2024-03-02T06:05:30;105.10;;;71.00;;
37303;SDS011;23188;51.188;16.374;2024-03-02T06:09:32;99.30;;;69.40;;
37303;SDS011;23188;51.188;16.374;2024-03-02T06:13:33;103.10;;;69.50;;
37303;SDS011;23188;51.188;16.374;2024-03-02T06:17:35;102.50;;;73.30;;
37303;SDS011;23188;51.188;16.374;2024-03-02T06:21:37;99.70;;;71.60;;
37303;SDS011;23188;51.188;16.374;2024-03-02T06:25:39;97.00;;;69.80;;
37303;SDS011;23188;51.188;16.374;2024-03-02T06:29:40;102.70;;;73.50;;
37303;SDS011;23188;51.188;16.374;2024-03-02T06:33:43;107.40;;;79.70;;
37303;SDS011;23188;51.188;16.374;2024-03-02T06:37:45;118.30;;;82.80;;
37303;SDS011;23188;51.188;16.374;2024-03-02T06:41:46;105.20;;;73.30;;
37303;SDS011;23188;51.188;16.374;2024-03-02T06:45:51;114.00;;;77.40;;
37303;SDS011;23188;51.188;16.374;2024-03-02T06:49:54;107.60;;;75.10;;
37303;SDS011;23188;51.188;16.374;2024-03-02T06:53:56;98.80;;;66.30;;
37303;SDS011;23188;51.188;16.374;2024-03-02T06:57:57;101.90;;;70.40;;
37303;SDS011;23188;51.188;16.374;2024-03-02T07:01:59;106.30;;;73.40;;
37303;SDS011;23188;51.188;16.374;2024-03-02T07:06:02;88.70;;;62.90;;
37303;SDS011;23188;51.188;16.374;2024-03-02T07:10:04;103.40;;;62.80;;
37303;SDS011;23188;51.188;16.374;2024-03-02T07:14:08;91.60;;;66.60;;
37303;SDS011;23188;51.188;16.374;2024-03-02T07:18:10;90.90;;;62.80;;
37303;SDS011;23188;51.188;16.374;2024-03-02T07:22:12;87.70;;;59.90;;
37303;SDS011;23188;51.188;16.374;2024-03-02T07:26:14;89.70;;;68.20;;
37303;SDS011;23188;51.188;16.374;2024-03-02T07:30:19;86.50;;;57.90;;
37303;SDS011;23188;51.188;16.374;2024-03-02T07:34:21;88.10;;;58.60;;
37303;SDS011;23188;51.188;16.374;2024-03-02T07:38:23;85.10;;;61.60;;
37303;SDS011;23188;51.188;16.374;2024-03-02T07:42:25;80.90;;;53.20;;
37303;SDS011;23188;51.188;16.374;2024-03-02T07:46:27;76.20;;;55.30;;
37303;SDS011;23188;51.188;16.374;2024-03-02T07:50:28;74.70;;;57.10;;
37303;SDS011;23188;51.188;16.374;2024-03-02T07:54:31;79.70;;;54.90;;
37303;SDS011;23188;51.188;16.374;2024-03-02T07:58:33;79.70;;;54.30;;
37303;SDS011;23188;51.188;16.374;2024-03-02T08:02:36;82.80;;;53.80;;
37303;SDS011;23188;51.188;16.374;2024-03-02T08:06:38;72.60;;;52.20;;
37303;SDS011;23188;51.188;16.374;2024-03-02T08:10:40;68.60;;;48.50;;
37303;SDS011;23188;51.188;16.374;2024-03-02T08:14:42;58.90;;;45.10;;
37303;SDS011;23188;51.188;16.374;2024-03-02T08:18:44;62.30;;;46.90;;
37303;SDS011;23188;51.188;16.374;2024-03-02T08:22:45;59.50;;;40.30;;
37303;SDS011;23188;51.188;16.374;2024-03-02T08:26:48;60.10;;;42.70;;
37303;SDS011;23188;51.188;16.374;2024-03-02T08:30:50;58.80;;;40.50;;
37303;SDS011;23188;51.188;16.374;2024-03-02T08:34:52;58.90;;;41.00;;
37303;SDS011;23188;51.188;16.374;2024-03-02T08:38:54;53.90;;;39.10;;
37303;SDS011;23188;51.188;16.374;2024-03-02T08:42:56;71.80;;;40.40;;
37303;SDS011;23188;51.188;16.374;2024-03-02T08:46:58;57.70;;;40.90;;
37303;SDS011;23188;51.188;16.374;2024-03-02T08:51:00;52.80;;;37.70;;
37303;SDS011;23188;51.188;16.374;2024-03-02T08:55:02;64.90;;;41.60;;
37303;SDS011;23188;51.188;16.374;2024-03-02T08:59:04;56.10;;;36.00;;
37303;SDS011;23188;51.188;16.374;2024-03-02T09:03:06;49.50;;;35.60;;
37303;SDS011;23188;51.188;16.374;2024-03-02T09:07:09;50.70;;;31.10;;
37303;SDS011;23188;51.188;16.374;2024-03-02T09:11:10;39.80;;;30.40;;
37303;SDS011;23188;51.188;16.374;2024-03-02T09:15:13;47.20;;;33.10;;
37303;SDS011;23188;51.188;16.374;2024-03-02T09:19:14;45.50;;;34.00;;
37303;SDS011;23188;51.188;16.374;2024-03-02T09:23:16;44.20;;;32.50;;
37303;SDS011;23188;51.188;16.374;2024-03-02T09:27:18;50.10;;;32.70;;
37303;SDS011;23188;51.188;16.374;2024-03-02T09:31:20;48.00;;;30.40;;
37303;SDS011;23188;51.188;16.374;2024-03-02T09:35:21;39.10;;;28.30;;
37303;SDS011;23188;51.188;16.374;2024-03-02T09:39:23;44.10;;;28.60;;
37303;SDS011;23188;51.188;16.374;2024-03-02T09:43:26;44.10;;;29.20;;
37303;SDS011;23188;51.188;16.374;2024-03-02T09:47:28;41.80;;;31.00;;
37303;SDS011;23188;51.188;16.374;2024-03-02T09:51:31;33.90;;;26.20;;
37303;SDS011;23188;51.188;16.374;2024-03-02T09:55:33;34.00;;;23.60;;
37303;SDS011;23188;51.188;16.374;2024-03-02T09:59:34;39.00;;;27.30;;
37303;SDS011;23188;51.188;16.374;2024-03-02T10:03:37;39.90;;;29.80;;
37303;SDS011;23188;51.188;16.374;2024-03-02T10:07:41;38.80;;;26.50;;
37303;SDS011;23188;51.188;16.374;2024-03-02T10:11:43;42.30;;;27.10;;
37303;SDS011;23188;51.188;16.374;2024-03-02T10:15:44;35.00;;;23.10;;
37303;SDS011;23188;51.188;16.374;2024-03-02T10:19:48;38.70;;;25.10;;
37303;SDS011;23188;51.188;16.374;2024-03-02T10:23:49;34.30;;;23.40;;
37303;SDS011;23188;51.188;16.374;2024-03-02T10:27:51;35.70;;;23.70;;
37303;SDS011;23188;51.188;16.374;2024-03-02T10:31:53;30.10;;;21.40;;
37303;SDS011;23188;51.188;16.374;2024-03-02T10:35:55;40.60;;;24.60;;
37303;SDS011;23188;51.188;16.374;2024-03-02T10:40:03;52.90;;;25.80;;
37303;SDS011;23188;51.188;16.374;2024-03-02T10:44:07;47.10;;;27.10;;
37303;SDS011;23188;51.188;16.374;2024-03-02T10:48:10;30.10;;;24.80;;
37303;SDS011;23188;51.188;16.374;2024-03-02T10:52:12;39.80;;;24.10;;
37303;SDS011;23188;51.188;16.374;2024-03-02T10:56:15;46.80;;;27.70;;
37303;SDS011;23188;51.188;16.374;2024-03-02T11:00:24;41.80;;;26.40;;
37303;SDS011;23188;51.188;16.374;2024-03-02T11:04:31;33.00;;;22.10;;
37303;SDS011;23188;51.188;16.374;2024-03-02T11:08:33;31.40;;;22.10;;
37303;SDS011;23188;51.188;16.374;2024-03-02T11:12:39;28.20;;;21.90;;
37303;SDS011;23188;51.188;16.374;2024-03-02T11:16:57;34.40;;;23.80;;
37303;SDS011;23188;51.188;16.374;2024-03-02T11:21:00;36.30;;;23.50;;
37303;SDS011;23188;51.188;16.374;2024-03-02T11:25:04;38.30;;;27.80;;
37303;SDS011;23188;51.188;16.374;2024-03-02T11:29:06;40.90;;;30.60;;
37303;SDS011;23188;51.188;16.374;2024-03-02T11:33:09;35.90;;;27.90;;
37303;SDS011;23188;51.188;16.374;2024-03-02T11:37:14;36.60;;;24.80;;
37303;SDS011;23188;51.188;16.374;2024-03-02T11:41:17;40.20;;;25.60;;
37303;SDS011;23188;51.188;16.374;2024-03-02T11:45:23;39.40;;;28.40;;
37303;SDS011;23188;51.188;16.374;2024-03-02T11:54:00;39.20;;;27.40;;
37303;SDS011;23188;51.188;16.374;2024-03-02T11:58:05;41.40;;;30.30;;
37303;SDS011;23188;51.188;16.374;2024-03-02T12:02:14;45.40;;;30.90;;
37303;SDS011;23188;51.188;16.374;2024-03-02T12:06:18;39.80;;;30.50;;
37303;SDS011;23188;51.188;16.374;2024-03-02T12:10:22;45.40;;;30.60;;
37303;SDS011;23188;51.188;16.374;2024-03-02T12:14:24;47.90;;;29.20;;
37303;SDS011;23188;51.188;16.374;2024-03-02T12:18:25;37.80;;;27.40;;
37303;SDS011;23188;51.188;16.374;2024-03-02T12:22:28;37.10;;;27.80;;
37303;SDS011;23188;51.188;16.374;2024-03-02T12:26:30;57.70;;;33.90;;
37303;SDS011;23188;51.188;16.374;2024-03-02T12:30:34;36.60;;;25.30;;
37303;SDS011;23188;51.188;16.374;2024-03-02T12:34:37;35.90;;;25.10;;
37303;SDS011;23188;51.188;16.374;2024-03-02T12:38:44;36.20;;;28.00;;
37303;SDS011;23188;51.188;16.374;2024-03-02T12:42:46;44.80;;;34.30;;
37303;SDS011;23188;51.188;16.374;2024-03-02T12:46:48;42.20;;;32.60;;
37303;SDS011;23188;51.188;16.374;2024-03-02T12:50:51;42.70;;;27.90;;
37303;SDS011;23188;51.188;16.374;2024-03-02T12:54:53;41.80;;;28.10;;
37303;SDS011;23188;51.188;16.374;2024-03-02T12:58:59;37.60;;;27.50;;
37303;SDS011;23188;51.188;16.374;2024-03-02T13:03:01;32.10;;;26.50;;
37303;SDS011;23188;51.188;16.374;2024-03-02T13:07:04;42.60;;;30.30;;
37303;SDS011;23188;51.188;16.374;2024-03-02T13:11:07;36.00;;;28.20;;
37303;SDS011;23188;51.188;16.374;2024-03-02T13:15:09;83.30;;;34.30;;
37303;SDS011;23188;51.188;16.374;2024-03-02T13:19:15;36.60;;;25.50;;
37303;SDS011;23188;51.188;16.374;2024-03-02T13:23:20;40.20;;;27.70;;
37303;SDS011;23188;51.188;16.374;2024-03-02T13:27:22;33.70;;;24.10;;
37303;SDS011;23188;51.188;16.374;2024-03-02T13:31:23;40.00;;;26.70;;
37303;SDS011;23188;51.188;16.374;2024-03-02T13:35:25;42.20;;;25.60;;
37303;SDS011;23188;51.188;16.374;2024-03-02T13:39:27;38.10;;;26.10;;
37303;SDS011;23188;51.188;16.374;2024-03-02T13:43:32;42.70;;;28.80;;
37303;SDS011;23188;51.188;16.374;2024-03-02T13:47:34;38.60;;;26.20;;
37303;SDS011;23188;51.188;16.374;2024-03-02T13:51:35;42.50;;;26.40;;
37303;SDS011;23188;51.188;16.374;2024-03-02T13:55:37;38.20;;;25.20;;
37303;SDS011;23188;51.188;16.374;2024-03-02T13:59:39;41.00;;;26.90;;
37303;SDS011;23188;51.188;16.374;2024-03-02T14:03:42;39.30;;;27.50;;
37303;SDS011;23188;51.188;16.374;2024-03-02T14:07:44;35.80;;;26.30;;
37303;SDS011;23188;51.188;16.374;2024-03-02T14:11:46;36.80;;;26.20;;
37303;SDS011;23188;51.188;16.374;2024-03-02T14:15:48;35.60;;;27.00;;
37303;SDS011;23188;51.188;16.374;2024-03-02T14:19:50;33.60;;;26.60;;
37303;SDS011;23188;51.188;16.374;2024-03-02T14:23:53;44.60;;;26.80;;
37303;SDS011;23188;51.188;16.374;2024-03-02T14:27:56;35.10;;;27.60;;
37303;SDS011;23188;51.188;16.374;2024-03-02T14:32:19;40.60;;;30.40;;
37303;SDS011;23188;51.188;16.374;2024-03-02T14:36:20;48.40;;;28.10;;
37303;SDS011;23188;51.188;16.374;2024-03-02T14:40:22;46.00;;;31.90;;
37303;SDS011;23188;51.188;16.374;2024-03-02T14:44:26;42.60;;;30.80;;
37303;SDS011;23188;51.188;16.374;2024-03-02T14:48:28;37.20;;;27.60;;
37303;SDS011;23188;51.188;16.374;2024-03-02T14:52:30;43.70;;;32.40;;
37303;SDS011;23188;51.188;16.374;2024-03-02T14:56:32;42.00;;;26.80;;
37303;SDS011;23188;51.188;16.374;2024-03-02T15:00:34;36.90;;;27.30;;
37303;SDS011;23188;51.188;16.374;2024-03-02T15:04:35;50.20;;;26.10;;
37303;SDS011;23188;51.188;16.374;2024-03-02T15:08:37;33.20;;;25.20;;
37303;SDS011;23188;51.188;16.374;2024-03-02T15:12:39;36.90;;;26.50;;
37303;SDS011;23188;51.188;16.374;2024-03-02T15:16:41;35.70;;;26.30;;
37303;SDS011;23188;51.188;16.374;2024-03-02T15:20:43;36.20;;;27.50;;
37303;SDS011;23188;51.188;16.374;2024-03-02T15:24:45;42.80;;;29.00;;
37303;SDS011;23188;51.188;16.374;2024-03-02T15:28:47;33.80;;;25.00;;
37303;SDS011;23188;51.188;16.374;2024-03-02T15:32:49;50.70;;;32.50;;
37303;SDS011;23188;51.188;16.374;2024-03-02T15:36:51;52.80;;;38.40;;
37303;SDS011;23188;51.188;16.374;2024-03-02T15:40:53;72.50;;;49.90;;
37303;SDS011;23188;51.188;16.374;2024-03-02T15:44:54;61.60;;;39.90;;
37303;SDS011;23188;51.188;16.374;2024-03-02T15:48:56;65.20;;;43.20;;
37303;SDS011;23188;51.188;16.374;2024-03-02T15:52:58;69.90;;;42.90;;
37303;SDS011;23188;51.188;16.374;2024-03-02T16:01:06;62.60;;;37.10;;
37303;SDS011;23188;51.188;16.374;2024-03-02T16:05:08;46.50;;;34.80;;
37303;SDS011;23188;51.188;16.374;2024-03-02T16:09:10;48.70;;;33.90;;
37303;SDS011;23188;51.188;16.374;2024-03-02T16:13:12;46.00;;;32.30;;
37303;SDS011;23188;51.188;16.374;2024-03-02T16:17:14;55.60;;;37.20;;
37303;SDS011;23188;51.188;16.374;2024-03-02T16:21:16;61.70;;;42.30;;
37303;SDS011;23188;51.188;16.374;2024-03-02T16:25:18;55.20;;;37.60;;
37303;SDS011;23188;51.188;16.374;2024-03-02T16:29:19;57.80;;;39.90;;
37303;SDS011;23188;51.188;16.374;2024-03-02T16:33:21;59.90;;;39.50;;
37303;SDS011;23188;51.188;16.374;2024-03-02T16:37:23;61.10;;;41.10;;
37303;SDS011;23188;51.188;16.374;2024-03-02T16:41:27;83.30;;;55.80;;
37303;SDS011;23188;51.188;16.374;2024-03-02T16:45:31;74.30;;;54.60;;
37303;SDS011;23188;51.188;16.374;2024-03-02T16:49:33;50.90;;;38.50;;
37303;SDS011;23188;51.188;16.374;2024-03-02T16:53:34;50.30;;;36.60;;
37303;SDS011;23188;51.188;16.374;2024-03-02T16:57:36;49.10;;;34.90;;
37303;SDS011;23188;51.188;16.374;2024-03-02T17:01:38;51.20;;;34.80;;
37303;SDS011;23188;51.188;16.374;2024-03-02T17:05:40;49.50;;;36.60;;
37303;SDS011;23188;51.188;16.374;2024-03-02T17:09:42;75.10;;;48.70;;
37303;SDS011;23188;51.188;16.374;2024-03-02T17:13:44;71.60;;;54.00;;
37303;SDS011;23188;51.188;16.374;2024-03-02T17:17:45;57.00;;;42.00;;
37303;SDS011;23188;51.188;16.374;2024-03-02T17:21:47;86.70;;;55.70;;
37303;SDS011;23188;51.188;16.374;2024-03-02T17:25:49;57.70;;;39.20;;
37303;SDS011;23188;51.188;16.374;2024-03-02T17:29:51;57.10;;;39.60;;
37303;SDS011;23188;51.188;16.374;2024-03-02T17:33:53;57.90;;;40.40;;
37303;SDS011;23188;51.188;16.374;2024-03-02T17:37:54;63.60;;;43.90;;
37303;SDS011;23188;51.188;16.374;2024-03-02T17:41:56;69.30;;;50.10;;
37303;SDS011;23188;51.188;16.374;2024-03-02T17:45:58;65.20;;;48.20;;
37303;SDS011;23188;51.188;16.374;2024-03-02T17:50:01;56.70;;;40.90;;
37303;SDS011;23188;51.188;16.374;2024-03-02T17:54:02;55.60;;;40.00;;
37303;SDS011;23188;51.188;16.374;2024-03-02T17:58:05;58.20;;;41.80;;
37303;SDS011;23188;51.188;16.374;2024-03-02T18:02:07;63.10;;;43.90;;
37303;SDS011;23188;51.188;16.374;2024-03-02T18:06:09;60.30;;;41.90;;
37303;SDS011;23188;51.188;16.374;2024-03-02T18:10:11;56.20;;;43.70;;
37303;SDS011;23188;51.188;16.374;2024-03-02T18:14:13;63.30;;;44.90;;
37303;SDS011;23188;51.188;16.374;2024-03-02T18:18:14;62.50;;;46.10;;
37303;SDS011;23188;51.188;16.374;2024-03-02T18:22:16;53.00;;;39.60;;
37303;SDS011;23188;51.188;16.374;2024-03-02T18:26:19;63.30;;;41.80;;
37303;SDS011;23188;51.188;16.374;2024-03-02T18:30:24;61.50;;;45.10;;
37303;SDS011;23188;51.188;16.374;2024-03-02T18:34:26;60.60;;;40.60;;
37303;SDS011;23188;51.188;16.374;2024-03-02T18:38:28;65.30;;;43.20;;
37303;SDS011;23188;51.188;16.374;2024-03-02T18:42:29;56.10;;;40.30;;
37303;SDS011;23188;51.188;16.374;2024-03-02T18:46:32;58.00;;;42.60;;
37303;SDS011;23188;51.188;16.374;2024-03-02T18:50:34;67.60;;;46.90;;
37303;SDS011;23188;51.188;16.374;2024-03-02T18:54:35;60.70;;;47.10;;
37303;SDS011;23188;51.188;16.374;2024-03-02T18:58:37;66.30;;;47.30;;
37303;SDS011;23188;51.188;16.374;2024-03-02T19:02:39;66.40;;;45.10;;
37303;SDS011;23188;51.188;16.374;2024-03-02T19:06:43;66.00;;;45.30;;
37303;SDS011;23188;51.188;16.374;2024-03-02T19:10:46;53.20;;;39.40;;
37303;SDS011;23188;51.188;16.374;2024-03-02T19:14:47;61.40;;;42.30;;
37303;SDS011;23188;51.188;16.374;2024-03-02T19:18:49;55.30;;;40.70;;
37303;SDS011;23188;51.188;16.374;2024-03-02T19:22:51;58.80;;;41.80;;
37303;SDS011;23188;51.188;16.374;2024-03-02T19:26:56;62.80;;;40.90;;
37303;SDS011;23188;51.188;16.374;2024-03-02T19:30:57;54.40;;;40.60;;
37303;SDS011;23188;51.188;16.374;2024-03-02T19:34:59;55.20;;;38.10;;
37303;SDS011;23188;51.188;16.374;2024-03-02T19:39:01;59.60;;;41.40;;
37303;SDS011;23188;51.188;16.374;2024-03-02T19:43:03;62.60;;;45.70;;
37303;SDS011;23188;51.188;16.374;2024-03-02T19:47:05;75.60;;;50.40;;
37303;SDS011;23188;51.188;16.374;2024-03-02T19:51:07;72.70;;;47.70;;
37303;SDS011;23188;51.188;16.374;2024-03-02T19:55:10;70.20;;;50.80;;
37303;SDS011;23188;51.188;16.374;2024-03-02T19:59:16;71.90;;;48.50;;
37303;SDS011;23188;51.188;16.374;2024-03-02T20:03:17;63.30;;;44.00;;
37303;SDS011;23188;51.188;16.374;2024-03-02T20:07:20;58.70;;;46.50;;
37303;SDS011;23188;51.188;16.374;2024-03-02T20:11:22;60.40;;;45.40;;
37303;SDS011;23188;51.188;16.374;2024-03-02T20:15:23;58.80;;;43.90;;
37303;SDS011;23188;51.188;16.374;2024-03-02T20:19:25;66.80;;;48.50;;
37303;SDS011;23188;51.188;16.374;2024-03-02T20:23:27;70.80;;;49.10;;
37303;SDS011;23188;51.188;16.374;2024-03-02T20:27:29;64.70;;;44.80;;
37303;SDS011;23188;51.188;16.374;2024-03-02T20:31:31;71.10;;;46.90;;
37303;SDS011;23188;51.188;16.374;2024-03-02T20:35:32;64.70;;;45.40;;
37303;SDS011;23188;51.188;16.374;2024-03-02T20:39:34;61.90;;;43.40;;
37303;SDS011;23188;51.188;16.374;2024-03-02T20:43:36;61.50;;;43.40;;
37303;SDS011;23188;51.188;16.374;2024-03-02T20:47:38;54.70;;;39.00;;
37303;SDS011;23188;51.188;16.374;2024-03-02T20:51:40;60.20;;;42.40;;
37303;SDS011;23188;51.188;16.374;2024-03-02T20:55:42;56.40;;;40.20;;
37303;SDS011;23188;51.188;16.374;2024-03-02T20:59:43;56.30;;;42.60;;
37303;SDS011;23188;51.188;16.374;2024-03-02T21:03:46;61.50;;;43.00;;
37303;SDS011;23188;51.188;16.374;2024-03-02T21:07:48;57.60;;;40.00;;
37303;SDS011;23188;51.188;16.374;2024-03-02T21:11:51;52.50;;;37.10;;
37303;SDS011;23188;51.188;16.374;2024-03-02T21:15:52;47.60;;;34.00;;
37303;SDS011;23188;51.188;16.374;2024-03-02T21:19:54;52.70;;;35.90;;
37303;SDS011;23188;51.188;16.374;2024-03-02T21:23:57;57.70;;;37.20;;
37303;SDS011;23188;51.188;16.374;2024-03-02T21:27:58;55.30;;;34.30;;
37303;SDS011;23188;51.188;16.374;2024-03-02T21:32:00;52.00;;;35.80;;
37303;SDS011;23188;51.188;16.374;2024-03-02T21:36:02;56.50;;;35.90;;
37303;SDS011;23188;51.188;16.374;2024-03-02T21:40:05;44.90;;;30.40;;
37303;SDS011;23188;51.188;16.374;2024-03-02T21:44:09;44.80;;;31.60;;
37303;SDS011;23188;51.188;16.374;2024-03-02T21:48:10;41.60;;;30.40;;
37303;SDS011;23188;51.188;16.374;2024-03-02T21:52:12;34.70;;;27.00;;
37303;SDS011;23188;51.188;16.374;2024-03-02T21:56:14;40.00;;;27.50;;
37303;SDS011;23188;51.188;16.374;2024-03-02T22:00:17;36.40;;;27.60;;
37303;SDS011;23188;51.188;16.374;2024-03-02T22:04:18;40.20;;;27.20;;
37303;SDS011;23188;51.188;16.374;2024-03-02T22:08:20;38.50;;;26.50;;
37303;SDS011;23188;51.188;16.374;2024-03-02T22:12:22;35.40;;;27.30;;
37303;SDS011;23188;51.188;16.374;2024-03-02T22:16:24;42.80;;;29.60;;
37303;SDS011;23188;51.188;16.374;2024-03-02T22:20:27;39.10;;;28.70;;
37303;SDS011;23188;51.188;16.374;2024-03-02T22:24:29;39.40;;;28.20;;
37303;SDS011;23188;51.188;16.374;2024-03-02T22:28:30;44.90;;;27.50;;
37303;SDS011;23188;51.188;16.374;2024-03-02T22:32:32;39.20;;;27.00;;
37303;SDS011;23188;51.188;16.374;2024-03-02T22:36:34;36.60;;;26.70;;
37303;SDS011;23188;51.188;16.374;2024-03-02T22:40:36;46.60;;;30.60;;
37303;SDS011;23188;51.188;16.374;2024-03-02T22:44:38;40.40;;;28.80;;
37303;SDS011;23188;51.188;16.374;2024-03-02T22:48:40;43.90;;;31.00;;
37303;SDS011;23188;51.188;16.374;2024-03-02T22:52:42;48.60;;;30.70;;
37303;SDS011;23188;51.188;16.374;2024-03-02T22:56:43;52.60;;;33.40;;
37303;SDS011;23188;51.188;16.374;2024-03-02T23:00:46;50.30;;;29.70;;
37303;SDS011;23188;51.188;16.374;2024-03-02T23:04:51;44.10;;;28.70;;
37303;SDS011;23188;51.188;16.374;2024-03-02T23:08:53;41.50;;;29.60;;
37303;SDS011;23188;51.188;16.374;2024-03-02T23:12:55;48.60;;;32.00;;
37303;SDS011;23188;51.188;16.374;2024-03-02T23:16:57;41.40;;;29.30;;
37303;SDS011;23188;51.188;16.374;2024-03-02T23:20:58;34.90;;;26.70;;